createdAt,value
2023-04-02T00:03:05.090Z,13.45
2023-04-02T00:08:20.391Z,13.15
2023-04-02T00:13:29.478Z,16.02
2023-04-02T00:18:32.939Z,15.00
2023-04-02T00:23:41.165Z,18.38
2023-04-02T00:28:42.587Z,15.90
2023-04-02T00:33:44.172Z,13.82
2023-04-02T00:38:48.714Z,14.98
2023-04-02T00:43:51.904Z,15.95
2023-04-02T00:49:14.477Z,15.82
2023-04-02T00:54:21.534Z,15.10
2023-04-02T00:59:30.190Z,12.60
2023-04-02T01:04:36.414Z,15.65
2023-04-02T01:10:13.154Z,13.35
2023-04-02T01:15:21.778Z,13.88
2023-04-02T01:20:47.906Z,12.53
2023-04-02T01:26:17.311Z,11.95
2023-04-02T01:31:19.114Z,9.73
2023-04-02T01:36:58.588Z,8.40
2023-04-02T01:42:15.856Z,9.57
2023-04-02T01:47:28.929Z,8.43
2023-04-02T01:52:43.286Z,9.15
2023-04-02T01:57:49.743Z,9.30
2023-04-02T02:02:52.001Z,10.40
2023-04-02T02:07:55.845Z,11.20
2023-04-02T02:12:59.292Z,9.30
2023-04-02T02:18:04.567Z,9.55
2023-04-02T02:23:07.137Z,11.73
2023-04-02T02:28:17.074Z,10.23
2023-04-02T02:33:46.026Z,11.02
2023-04-02T02:39:10.772Z,8.30
2023-04-02T02:44:20.934Z,7.63
2023-04-02T02:49:28.418Z,6.53
2023-04-02T02:54:32.258Z,7.03
2023-04-02T02:59:34.287Z,6.07
2023-04-02T03:04:36.334Z,7.22
2023-04-02T03:10:09.693Z,8.85
2023-04-02T03:15:20.368Z,6.97
2023-04-02T03:20:32.973Z,12.23
2023-04-02T03:25:48.257Z,7.57
2023-04-02T03:30:56.559Z,7.15
2023-04-02T03:36:02.860Z,5.45
2023-04-02T03:41:27.129Z,5.22
2023-04-02T03:46:38.073Z,4.68
2023-04-02T03:51:55.405Z,5.60
2023-04-02T03:56:57.689Z,4.63
2023-04-02T04:02:09.128Z,4.82
2023-04-02T04:07:21.088Z,5.80
2023-04-02T04:12:39.768Z,5.57
2023-04-02T04:18:04.652Z,4.82
2023-04-02T04:23:33.824Z,5.97
2023-04-02T04:29:05.538Z,6.88
2023-04-02T04:34:38.880Z,6.47
2023-04-02T04:39:45.790Z,6.60
2023-04-02T04:45:23.633Z,7.18
2023-04-02T04:50:37.038Z,8.45
2023-04-02T04:55:45.657Z,9.15
2023-04-02T05:01:24.129Z,8.93
2023-04-02T05:06:41.840Z,8.60
2023-04-02T05:12:00.440Z,11.80
2023-04-02T05:17:19.557Z,12.17
2023-04-02T05:22:50.946Z,12.52
2023-04-02T05:28:03.741Z,11.80
2023-04-02T05:33:23.519Z,9.63
2023-04-02T05:38:31.763Z,10.73
2023-04-02T05:43:35.452Z,12.55
2023-04-02T05:48:40.996Z,12.27
2023-04-02T05:54:05.016Z,11.05
2023-04-02T05:59:16.212Z,9.20
2023-04-02T06:04:29.844Z,8.50
2023-04-02T06:09:57.205Z,7.15
2023-04-02T06:14:58.973Z,9.00
2023-04-02T06:20:04.233Z,8.98
2023-04-02T06:25:22.166Z,7.85
2023-04-02T06:30:30.168Z,5.82
2023-04-02T06:35:34.624Z,6.70
2023-04-02T06:40:59.036Z,8.63
2023-04-02T06:46:23.871Z,8.18
2023-04-02T06:51:26.685Z,6.22
2023-04-02T06:56:46.780Z,5.00
2023-04-02T07:01:54.640Z,4.25
2023-04-02T07:06:56.543Z,5.60
2023-04-02T07:11:57.960Z,4.50
2023-04-02T07:16:59.403Z,3.92
2023-04-02T07:22:01.083Z,5.32
2023-04-02T07:27:02.543Z,3.50
2023-04-02T07:32:03.988Z,5.55
2023-04-02T07:37:05.906Z,3.92
2023-04-02T07:42:07.979Z,4.53
2023-04-02T07:47:10.595Z,4.10
2023-04-02T07:52:12.117Z,5.47
2023-04-02T07:57:13.735Z,4.10
2023-04-02T08:02:21.116Z,4.07
2023-04-02T08:07:22.598Z,4.03
2023-04-02T08:12:24.046Z,5.20
2023-04-02T08:17:26.633Z,5.70
2023-04-02T08:22:29.081Z,5.03
2023-04-02T08:27:30.942Z,5.30
2023-04-02T08:32:32.435Z,3.50
2023-04-02T08:37:33.947Z,4.55
2023-04-02T08:42:48.187Z,6.18
2023-04-02T08:47:53.370Z,4.57
2023-04-02T08:52:55.079Z,4.38
2023-04-02T08:58:10.665Z,5.50
2023-04-02T09:03:21.676Z,3.67
2023-04-02T09:08:27.536Z,3.78
2023-04-02T09:13:31.291Z,6.88
2023-04-02T09:18:33.244Z,4.20
2023-04-02T09:23:34.709Z,3.78
2023-04-02T09:28:36.318Z,5.18
2023-04-02T09:33:51.569Z,5.78
2023-04-02T09:38:59.151Z,6.38
2023-04-02T09:44:23.781Z,4.07
2023-04-02T09:49:28.592Z,6.00
2023-04-02T09:54:30.004Z,4.20
2023-04-02T09:59:31.530Z,5.40
2023-04-02T10:04:48.260Z,5.30
2023-04-02T10:09:58.741Z,4.68
2023-04-02T10:15:03.267Z,5.50
2023-04-02T10:20:26.348Z,6.70
2023-04-02T10:25:34.586Z,4.95
2023-04-02T10:30:51.738Z,5.55
2023-04-02T10:36:19.724Z,5.32
2023-04-02T10:42:04.812Z,7.80
2023-04-02T10:47:12.804Z,5.05
2023-04-02T10:52:21.617Z,5.30
2023-04-02T10:57:38.009Z,6.68
2023-04-02T11:02:58.330Z,4.70
2023-04-02T11:08:16.620Z,5.32
2023-04-02T11:13:28.800Z,6.82
2023-04-02T11:18:38.844Z,7.72
2023-04-02T11:23:56.964Z,5.93
2023-04-02T11:29:29.492Z,6.15
2023-04-02T11:34:56.354Z,6.60
2023-04-02T11:40:06.054Z,8.07
2023-04-02T11:45:28.756Z,7.03
2023-04-02T11:50:35.928Z,8.25
2023-04-02T11:55:40.970Z,6.53
2023-04-02T12:01:05.651Z,5.80
2023-04-02T12:06:27.836Z,4.80
2023-04-02T12:11:35.880Z,6.32
2023-04-02T12:16:37.612Z,4.85
2023-04-02T12:21:47.515Z,6.97
2023-04-02T12:26:49.135Z,7.10
2023-04-02T12:31:51.152Z,7.68
2023-04-02T12:36:55.067Z,8.63
2023-04-02T12:41:57.221Z,6.28
2023-04-02T12:46:59.443Z,10.65
2023-04-02T12:52:07.333Z,4.63
2023-04-02T12:57:42.752Z,5.68
2023-04-02T13:02:46.549Z,9.57
2023-04-02T13:07:49.186Z,5.25
2023-04-02T13:12:56.515Z,6.82
2023-04-02T13:18:19.388Z,7.43
2023-04-02T13:23:29.816Z,5.78
2023-04-02T13:28:31.375Z,5.60
2023-04-02T13:33:32.785Z,5.97
2023-04-02T13:38:34.218Z,6.60
2023-04-02T13:43:35.670Z,7.10
2023-04-02T13:48:37.080Z,6.22
2023-04-02T13:53:38.892Z,6.10
2023-04-02T13:58:40.374Z,6.63
2023-04-02T14:03:42.144Z,7.85
2023-04-02T14:08:53.290Z,5.38
2023-04-02T14:14:19.781Z,7.50
2023-04-02T14:19:31.641Z,7.03
2023-04-02T14:24:50.280Z,6.40
2023-04-02T14:29:57.657Z,7.03
2023-04-02T14:35:26.873Z,6.50
2023-04-02T14:40:37.825Z,5.88
2023-04-02T14:45:58.432Z,5.78
2023-04-02T14:51:05.031Z,5.85
2023-04-02T14:56:10.005Z,7.00
2023-04-02T15:01:21.899Z,6.75
2023-04-02T15:06:31.198Z,9.23
2023-04-02T15:11:38.327Z,6.70
2023-04-02T15:16:39.899Z,11.82
2023-04-02T15:21:55.879Z,11.13
2023-04-02T15:27:27.734Z,6.15
2023-04-02T15:32:35.548Z,12.10
2023-04-02T15:37:54.116Z,6.55
2023-04-02T15:43:23.578Z,11.13
2023-04-02T15:48:36.824Z,7.47
2023-04-02T15:53:57.752Z,7.57
2023-04-02T15:59:30.636Z,9.50
2023-04-02T16:04:38.464Z,7.35
2023-04-02T16:10:08.538Z,8.60
2023-04-02T16:15:40.535Z,6.60
2023-04-02T16:20:46.095Z,6.20
2023-04-02T16:26:16.943Z,6.65
2023-04-02T16:31:28.175Z,5.45
2023-04-02T16:36:43.381Z,6.75
2023-04-02T16:42:15.583Z,7.82
2023-04-02T16:47:29.764Z,7.03
2023-04-02T16:53:09.760Z,7.72
2023-04-02T16:58:30.062Z,5.68
2023-04-02T17:03:59.787Z,5.30
2023-04-02T17:09:33.216Z,7.07
2023-04-02T17:14:43.140Z,6.47
2023-04-02T17:19:44.984Z,9.80
2023-04-02T17:24:58.148Z,7.88
2023-04-02T17:30:41.505Z,7.22
2023-04-02T17:35:57.418Z,7.93
2023-04-02T17:41:08.094Z,8.15
2023-04-02T17:46:22.305Z,11.10
2023-04-02T17:51:38.467Z,9.43
2023-04-02T17:57:14.973Z,7.57
2023-04-02T18:02:28.473Z,8.18
2023-04-02T18:08:02.516Z,5.93
2023-04-02T18:13:17.283Z,6.43
2023-04-02T18:19:03.321Z,5.55
2023-04-02T18:24:35.849Z,8.80
2023-04-02T18:29:48.846Z,6.55
2023-04-02T18:35:08.807Z,6.80
2023-04-02T18:40:36.893Z,8.75
2023-04-02T18:46:05.786Z,6.50
2023-04-02T18:51:16.012Z,5.88
2023-04-02T18:56:21.935Z,7.20
2023-04-02T19:01:39.046Z,7.60
2023-04-02T19:06:48.292Z,7.95
2023-04-02T19:11:52.884Z,8.15
2023-04-02T19:17:12.473Z,6.95
2023-04-02T19:22:29.550Z,5.47
2023-04-02T19:27:33.976Z,5.30
2023-04-02T19:32:46.220Z,6.35
2023-04-02T19:38:26.739Z,6.40
2023-04-02T19:43:29.510Z,6.20
2023-04-02T19:48:57.783Z,5.00
2023-04-02T19:53:59.837Z,9.32
2023-04-02T19:59:07.646Z,5.15
2023-04-02T20:04:13.390Z,6.20
2023-04-02T20:09:14.863Z,8.77
2023-04-02T20:14:16.387Z,6.85
2023-04-02T20:19:17.829Z,8.98
2023-04-02T20:24:19.285Z,5.43
2023-04-02T20:29:22.894Z,5.78
2023-04-02T20:34:24.789Z,6.57
2023-04-02T20:39:26.371Z,5.63
2023-04-02T20:44:28.484Z,7.43
2023-04-02T20:49:29.933Z,6.25
2023-04-02T20:54:31.601Z,4.50
2023-04-02T20:59:33.078Z,5.70
2023-04-02T21:04:34.518Z,5.68
2023-04-02T21:09:36.125Z,5.85
2023-04-02T21:14:39.083Z,6.57
2023-04-02T21:19:40.733Z,5.85
2023-04-02T21:24:42.159Z,5.00
2023-04-02T21:29:43.695Z,4.03
2023-04-02T21:34:45.299Z,5.78
2023-04-02T21:39:46.724Z,3.92
2023-04-02T21:44:48.172Z,5.63
2023-04-02T21:49:49.652Z,7.30
2023-04-02T21:54:51.112Z,3.13
2023-04-02T21:59:56.770Z,5.95
2023-04-02T22:04:58.216Z,5.75
2023-04-02T22:09:59.621Z,4.65
2023-04-02T22:15:01.084Z,6.47
2023-04-02T22:20:02.529Z,5.07
2023-04-02T22:25:04.294Z,6.80
2023-04-02T22:30:06.739Z,5.40
2023-04-02T22:35:08.559Z,5.63
2023-04-02T22:40:10.487Z,5.28
2023-04-02T22:45:12.493Z,5.35
2023-04-02T22:50:15.345Z,7.20
2023-04-02T22:55:16.996Z,5.97
2023-04-02T23:00:18.786Z,5.82
2023-04-02T23:05:20.891Z,6.25
2023-04-02T23:10:22.401Z,6.00
2023-04-02T23:15:24.105Z,5.90
2023-04-02T23:20:25.567Z,7.15
2023-04-02T23:25:26.997Z,6.60
2023-04-02T23:30:28.452Z,5.75
2023-04-02T23:35:30.213Z,4.25
2023-04-02T23:40:31.648Z,6.10
2023-04-02T23:45:33.077Z,4.85
2023-04-02T23:50:34.761Z,4.40
2023-04-02T23:55:36.502Z,5.03
